Rea, Michigan
Current Conditions -  °F | °C
As of 3:52 PM on Tuesday 27 Jan 2015 (Local Time) from KTTF Reporting Station
Clear Clear  
Wind Chill: 17°   Ceiling: Unl
Heat Index: 27°   Visibility: 10mi
Dew Point: 12°   Wind: 9mph
Humidity: 55%   Direction: 330°NNW
Pressure: 30.12"   Gusts: NA
Location:  41.9654°N, 83.6707°W
Report Text: KTTF 272052Z AUTO 33008KT 10SM CLR M03/M11 A3012 RMK AO2
Loading
Personal Weather Stations






























Interactive Weather Map New forecast layout! Learn more

10-Day Weather Forecast

Advertisements
Track Severe Weather on mobile